Time;durP1;ratioP1;P1;durP2;ratioP2;P2;SDS_P1;SDS_P2;PMS_P1;PMS_P2;Temp;Humidity;BMP_temperature;BMP_pressure;BME280_temperature;BME280_humidity;BME280_pressure;Samples;Min_cycle;Max_cycle;Signal;HPM_P1;HPM_P2
2023/11/23 00:01:48;;;;;;;65.88;55.88;;;;;;;;;;4988951;28;25047;-70
2023/11/23 00:04:15;;;;;;;61.65;55.80;;;;;;;;;;4983900;28;25059;-70
2023/11/23 00:06:41;;;;;;;64.07;57.20;;;;;;;;;;4985703;28;25065;-70
2023/11/23 00:09:09;;;;;;;61.92;55.92;;;;;;;;;;4984937;28;25054;-70
2023/11/23 00:11:35;;;;;;;61.40;55.33;;;;;;;;;;4986329;28;25086;-70
2023/11/23 00:14:01;;;;;;;60.25;53.88;;;;;;;;;;4984392;28;25084;-71
2023/11/23 00:16:27;;;;;;;63.33;57.10;;;;;;;;;;4987591;28;25492;-69
2023/11/23 00:18:53;;;;;;;65.68;59.05;;;;;;;;;;4984800;28;25065;-70
2023/11/23 00:21:18;;;;;;;62.30;56.25;;;;;;;;;;4988052;28;25076;-69
2023/11/23 00:23:44;;;;;;;64.85;57.90;;;;;;;;;;4984167;28;25087;-70
2023/11/23 00:26:13;;;;;;;65.82;58.72;;;;;;;;;;4986421;28;25085;-69
2023/11/23 00:28:39;;;;;;;62.97;56.60;;;;;;;;;;4985784;28;25087;-70
2023/11/23 00:31:05;;;;;;;65.38;58.70;;;;;;;;;;4985191;28;25064;-70
2023/11/23 00:33:31;;;;;;;58.42;52.92;;;;;;;;;;4985673;28;25158;-70
2023/11/23 00:35:57;;;;;;;57.40;51.40;;;;;;;;;;4979754;28;25112;-70
2023/11/23 00:38:23;;;;;;;59.20;52.78;;;;;;;;;;4982939;28;25078;-70
2023/11/23 00:40:49;;;;;;;58.72;52.47;;;;;;;;;;4982280;28;25070;-69
2023/11/23 00:43:15;;;;;;;59.88;54.00;;;;;;;;;;4984120;28;25064;-72
2023/11/23 00:45:41;;;;;;;61.65;55.63;;;;;;;;;;4986527;28;25061;-71
2023/11/23 00:48:07;;;;;;;63.03;56.33;;;;;;;;;;4979725;28;25058;-72
2023/11/23 00:50:33;;;;;;;63.20;57.17;;;;;;;;;;4987369;28;25079;-70
2023/11/23 00:52:59;;;;;;;62.15;55.80;;;;;;;;;;4987153;28;25071;-71
2023/11/23 00:55:26;;;;;;;61.72;55.50;;;;;;;;;;4985610;28;25079;-72
2023/11/23 00:57:52;;;;;;;59.63;54.15;;;;;;;;;;4986685;28;25131;-71
2023/11/23 01:00:18;;;;;;;62.20;56.20;;;;;;;;;;4987076;28;25065;-71
2023/11/23 01:02:46;;;;;;;61.83;55.88;;;;;;;;;;4987339;28;25054;-72
2023/11/23 01:05:12;;;;;;;65.70;58.67;;;;;;;;;;4987054;28;25093;-71
2023/11/23 01:07:38;;;;;;;63.60;56.90;;;;;;;;;;4986947;28;25048;-70
2023/11/23 01:10:07;;;;;;;62.80;56.10;;;;;;;;;;4986105;28;25066;-70
2023/11/23 01:12:34;;;;;;;61.45;55.05;;;;;;;;;;4986028;28;25045;-70
2023/11/23 01:15:00;;;;;;;62.22;56.17;;;;;;;;;;4992406;28;25064;-70
2023/11/23 01:17:26;;;;;;;62.92;56.95;;;;;;;;;;4993678;28;25077;-70
2023/11/23 01:19:52;;;;;;;65.13;58.25;;;;;;;;;;4987931;28;25102;-71
2023/11/23 01:22:18;;;;;;;62.90;55.72;;;;;;;;;;4983796;28;25056;-69
2023/11/23 01:24:44;;;;;;;59.88;54.53;;;;;;;;;;4987590;28;25074;-69
2023/11/23 01:27:10;;;;;;;61.70;55.72;;;;;;;;;;4987400;28;25100;-70
2023/11/23 01:29:36;;;;;;;60.20;54.15;;;;;;;;;;4986737;28;25082;-70
2023/11/23 01:32:02;;;;;;;58.65;52.47;;;;;;;;;;4988662;28;25076;-70
2023/11/23 01:34:28;;;;;;;57.53;51.63;;;;;;;;;;4987006;28;25069;-70
2023/11/23 01:36:54;;;;;;;60.60;53.08;;;;;;;;;;4979929;28;25056;-71
2023/11/23 01:39:20;;;;;;;59.03;52.70;;;;;;;;;;4984951;28;25114;-70
2023/11/23 01:41:46;;;;;;;58.20;52.47;;;;;;;;;;4985722;28;25063;-71
2023/11/23 01:44:12;;;;;;;56.63;51.00;;;;;;;;;;4984126;28;25163;-70
2023/11/23 01:46:38;;;;;;;53.75;48.45;;;;;;;;;;4984211;28;25159;-71
2023/11/23 01:49:05;;;;;;;54.22;48.72;;;;;;;;;;4989588;28;25127;-70
2023/11/23 01:51:31;;;;;;;54.55;49.33;;;;;;;;;;4986023;28;25047;-71
2023/11/23 01:53:58;;;;;;;52.50;47.60;;;;;;;;;;4984465;28;25063;-69
2023/11/23 01:56:25;;;;;;;58.08;49.60;;;;;;;;;;4983757;28;25059;-69
2023/11/23 01:58:52;;;;;;;53.60;48.28;;;;;;;;;;4980098;28;25083;-69
2023/11/23 02:01:18;;;;;;;54.47;48.58;;;;;;;;;;4984160;28;25074;-70
2023/11/23 02:03:45;;;;;;;52.40;47.13;;;;;;;;;;4985264;28;25080;-69
2023/11/23 02:06:12;;;;;;;51.28;45.90;;;;;;;;;;4985961;28;25094;-70
2023/11/23 02:08:39;;;;;;;54.00;48.65;;;;;;;;;;4983528;28;25049;-70
2023/11/23 02:11:05;;;;;;;52.80;47.60;;;;;;;;;;4984739;28;25131;-70
2023/11/23 02:13:33;;;;;;;53.60;48.47;;;;;;;;;;4982146;28;25152;-70
2023/11/23 02:15:59;;;;;;;54.42;48.92;;;;;;;;;;4982307;28;25099;-70
2023/11/23 02:18:25;;;;;;;51.65;46.50;;;;;;;;;;4979418;28;25101;-72
2023/11/23 02:20:51;;;;;;;56.47;51.03;;;;;;;;;;4984214;28;25073;-67
2023/11/23 02:23:17;;;;;;;55.33;50.45;;;;;;;;;;4996767;28;25099;-71
2023/11/23 02:25:43;;;;;;;56.28;50.22;;;;;;;;;;4985556;28;25057;-69
2023/11/23 02:28:09;;;;;;;58.58;51.97;;;;;;;;;;4984363;28;25133;-70
2023/11/23 02:30:36;;;;;;;55.33;49.72;;;;;;;;;;4982566;28;25089;-70
2023/11/23 02:33:03;;;;;;;57.38;51.03;;;;;;;;;;4983878;28;25147;-69
2023/11/23 02:35:32;;;;;;;52.75;47.55;;;;;;;;;;4981256;28;25103;-70
2023/11/23 02:37:58;;;;;;;54.85;49.05;;;;;;;;;;4980385;28;25074;-71
2023/11/23 02:40:25;;;;;;;56.30;50.72;;;;;;;;;;4986015;28;25143;-69
2023/11/23 02:42:51;;;;;;;57.38;51.13;;;;;;;;;;4984611;28;25085;-71
2023/11/23 02:45:17;;;;;;;57.60;51.33;;;;;;;;;;4979039;28;25059;-70
2023/11/23 02:47:43;;;;;;;53.75;48.58;;;;;;;;;;4983866;28;25145;-71
2023/11/23 02:50:11;;;;;;;52.33;47.58;;;;;;;;;;4985213;28;25067;-70
2023/11/23 02:52:37;;;;;;;53.28;48.20;;;;;;;;;;4984963;28;25058;-71
2023/11/23 02:55:03;;;;;;;50.90;46.28;;;;;;;;;;4983124;28;25128;-71
2023/11/23 02:57:32;;;;;;;52.65;47.30;;;;;;;;;;4984466;28;25046;-70
2023/11/23 02:59:58;;;;;;;48.92;44.72;;;;;;;;;;4977784;28;25051;-71
2023/11/23 03:02:24;;;;;;;52.15;46.72;;;;;;;;;;4978047;28;25105;-70
2023/11/23 03:04:50;;;;;;;51.03;46.65;;;;;;;;;;4978830;28;25079;-69
2023/11/23 03:07:17;;;;;;;49.78;45.10;;;;;;;;;;4974093;28;25045;-70
2023/11/23 03:09:43;;;;;;;52.58;47.83;;;;;;;;;;4990675;28;25173;-72
2023/11/23 03:12:09;;;;;;;52.03;46.45;;;;;;;;;;4981811;28;25124;-70
2023/11/23 03:14:35;;;;;;;52.03;47.28;;;;;;;;;;4983016;28;25071;-71
2023/11/23 03:17:03;;;;;;;51.80;47.25;;;;;;;;;;4979153;28;25139;-69
2023/11/23 03:19:29;;;;;;;51.80;46.83;;;;;;;;;;4984544;28;25125;-71
2023/11/23 03:21:55;;;;;;;50.60;45.67;;;;;;;;;;4977919;28;25102;-71
2023/11/23 03:24:20;;;;;;;50.53;45.58;;;;;;;;;;4984431;28;25156;-71
2023/11/23 03:26:47;;;;;;;48.33;44.30;;;;;;;;;;4980623;28;25145;-70
2023/11/23 03:29:12;;;;;;;48.83;44.58;;;;;;;;;;4982990;28;25062;-70
2023/11/23 03:31:38;;;;;;;48.05;43.53;;;;;;;;;;4985095;28;25144;-70
2023/11/23 03:34:05;;;;;;;47.47;42.97;;;;;;;;;;4982548;28;25136;-71
2023/11/23 03:36:31;;;;;;;47.58;43.22;;;;;;;;;;4982118;28;25055;-70
2023/11/23 03:38:57;;;;;;;46.90;42.65;;;;;;;;;;4981772;28;25061;-70
2023/11/23 03:41:24;;;;;;;46.45;42.40;;;;;;;;;;4983714;28;25047;-72
2023/11/23 03:43:50;;;;;;;47.65;43.03;;;;;;;;;;4981574;28;25095;-71
2023/11/23 03:46:16;;;;;;;48.55;43.25;;;;;;;;;;4977561;28;25139;-70
2023/11/23 03:48:42;;;;;;;46.75;42.45;;;;;;;;;;4985690;28;25106;-69
2023/11/23 03:51:12;;;;;;;46.65;42.30;;;;;;;;;;4980699;28;25079;-71
2023/11/23 03:53:38;;;;;;;44.58;40.97;;;;;;;;;;4987529;28;25106;-71
2023/11/23 03:56:04;;;;;;;46.53;42.70;;;;;;;;;;4985252;28;25102;-70
2023/11/23 03:58:30;;;;;;;46.58;42.85;;;;;;;;;;4979851;28;25101;-70
2023/11/23 04:00:56;;;;;;;46.45;42.42;;;;;;;;;;4979477;28;25106;-71
2023/11/23 04:03:22;;;;;;;48.30;43.33;;;;;;;;;;4989168;28;25150;-69
2023/11/23 04:05:48;;;;;;;45.55;41.00;;;;;;;;;;4983408;28;25054;-70
2023/11/23 04:08:14;;;;;;;45.13;40.90;;;;;;;;;;4983128;28;25090;-69
2023/11/23 04:10:40;;;;;;;44.17;40.20;;;;;;;;;;4982236;28;25084;-70
2023/11/23 04:13:06;;;;;;;46.30;42.40;;;;;;;;;;4985685;28;25107;-69
2023/11/23 04:15:32;;;;;;;46.05;42.08;;;;;;;;;;4985451;28;25109;-71
2023/11/23 04:17:58;;;;;;;44.55;40.58;;;;;;;;;;4974698;28;25071;-69
2023/11/23 04:20:24;;;;;;;44.85;41.28;;;;;;;;;;4987485;28;25080;-69
2023/11/23 04:22:50;;;;;;;44.50;40.97;;;;;;;;;;4989992;28;25071;-70
2023/11/23 04:25:16;;;;;;;43.28;39.78;;;;;;;;;;4982978;28;25085;-69
2023/11/23 04:27:43;;;;;;;45.05;41.20;;;;;;;;;;4983108;28;25092;-70
2023/11/23 04:30:10;;;;;;;43.63;40.30;;;;;;;;;;4982089;28;25071;-70
2023/11/23 04:32:36;;;;;;;45.72;41.53;;;;;;;;;;4991146;28;25051;-70
2023/11/23 04:35:02;;;;;;;42.17;38.92;;;;;;;;;;4988929;28;25096;-69
2023/11/23 04:37:28;;;;;;;43.50;39.55;;;;;;;;;;4979391;28;25162;-69
2023/11/23 04:39:54;;;;;;;42.17;38.38;;;;;;;;;;4976374;28;25090;-70
2023/11/23 04:42:20;;;;;;;43.92;40.10;;;;;;;;;;4982307;28;25093;-70
2023/11/23 04:44:46;;;;;;;41.80;38.22;;;;;;;;;;4976454;28;25085;-69
2023/11/23 04:47:12;;;;;;;41.97;38.17;;;;;;;;;;4982561;28;25066;-70
2023/11/23 04:49:38;;;;;;;40.15;36.22;;;;;;;;;;4985703;28;25070;-71
2023/11/23 04:52:05;;;;;;;38.72;35.75;;;;;;;;;;4982612;28;25142;-70
2023/11/23 04:54:31;;;;;;;38.85;34.85;;;;;;;;;;4986665;28;25155;-70
2023/11/23 04:56:57;;;;;;;40.55;36.65;;;;;;;;;;4986781;28;25092;-69
2023/11/23 04:59:23;;;;;;;38.03;34.55;;;;;;;;;;4989727;28;25079;-70
2023/11/23 05:01:49;;;;;;;39.67;35.53;;;;;;;;;;4993345;28;25068;-71
2023/11/23 05:04:15;;;;;;;40.20;35.70;;;;;;;;;;4988026;28;25090;-71
2023/11/23 05:06:41;;;;;;;43.25;35.72;;;;;;;;;;4992622;28;25229;-70
2023/11/23 05:09:07;;;;;;;41.33;37.65;;;;;;;;;;4989732;28;25056;-69
2023/11/23 05:11:33;;;;;;;42.00;38.40;;;;;;;;;;4982042;28;25080;-70
2023/11/23 05:14:09;;;;;;;42.22;38.08;;;;;;;;;;4982292;28;25139;-70
2023/11/23 05:16:35;;;;;;;43.08;38.35;;;;;;;;;;4979476;28;25096;-70
2023/11/23 05:19:01;;;;;;;43.15;38.97;;;;;;;;;;4986591;28;25082;-70
2023/11/23 05:21:28;;;;;;;42.80;38.65;;;;;;;;;;4986586;28;25076;-70
2023/11/23 05:23:53;;;;;;;50.20;38.75;;;;;;;;;;4989856;28;25125;-69
2023/11/23 05:26:19;;;;;;;43.08;39.05;;;;;;;;;;4983946;28;25070;-70
2023/11/23 05:28:45;;;;;;;43.25;38.45;;;;;;;;;;4980248;28;25070;-70
2023/11/23 05:31:11;;;;;;;46.28;41.17;;;;;;;;;;4978044;28;25101;-70
2023/11/23 05:33:37;;;;;;;47.67;42.10;;;;;;;;;;4982525;28;25099;-70
2023/11/23 05:36:04;;;;;;;43.47;39.30;;;;;;;;;;4984066;28;25101;-70
2023/11/23 05:38:33;;;;;;;47.92;41.17;;;;;;;;;;4978928;28;25143;-73
2023/11/23 05:40:59;;;;;;;44.38;39.55;;;;;;;;;;4982506;28;25107;-72
2023/11/23 05:43:25;;;;;;;45.28;41.08;;;;;;;;;;4985115;28;25060;-72
2023/11/23 05:45:51;;;;;;;47.15;41.83;;;;;;;;;;4985190;28;25062;-71
2023/11/23 05:48:17;;;;;;;46.22;40.17;;;;;;;;;;4974042;28;25146;-68
2023/11/23 05:50:43;;;;;;;44.65;40.13;;;;;;;;;;4977687;28;25149;-70
2023/11/23 05:53:09;;;;;;;49.97;40.67;;;;;;;;;;4985041;28;25078;-71
2023/11/23 05:55:36;;;;;;;44.03;39.53;;;;;;;;;;4978607;28;25047;-71
2023/11/23 05:58:02;;;;;;;47.22;41.92;;;;;;;;;;4988308;28;25117;-69
2023/11/23 06:00:28;;;;;;;43.78;39.70;;;;;;;;;;4995149;28;25071;-70
2023/11/23 06:02:54;;;;;;;42.55;38.65;;;;;;;;;;4990292;28;25061;-70
2023/11/23 06:05:20;;;;;;;42.08;38.22;;;;;;;;;;4982556;28;25104;-70
2023/11/23 06:07:46;;;;;;;41.03;37.38;;;;;;;;;;4987362;28;25077;-70
2023/11/23 06:10:12;;;;;;;41.85;37.83;;;;;;;;;;4984339;28;25087;-69
2023/11/23 06:12:39;;;;;;;38.95;35.25;;;;;;;;;;4983886;28;25152;-70
2023/11/23 06:15:06;;;;;;;40.67;36.70;;;;;;;;;;4978859;28;25065;-69
2023/11/23 06:17:32;;;;;;;42.53;38.30;;;;;;;;;;4981872;28;25079;-70
2023/11/23 06:19:58;;;;;;;42.40;38.13;;;;;;;;;;4980585;28;25067;-70
2023/11/23 06:22:24;;;;;;;55.30;37.70;;;;;;;;;;4978614;28;25117;-70
2023/11/23 06:24:50;;;;;;;39.30;35.58;;;;;;;;;;4980718;28;25089;-70
2023/11/23 06:27:16;;;;;;;41.58;37.38;;;;;;;;;;4972551;28;25222;-69
2023/11/23 06:29:42;;;;;;;39.88;35.83;;;;;;;;;;4977945;28;25083;-69
2023/11/23 06:32:10;;;;;;;42.80;38.40;;;;;;;;;;4976730;28;25071;-69
2023/11/23 06:34:36;;;;;;;43.20;38.58;;;;;;;;;;4976490;28;25161;-71
2023/11/23 06:37:02;;;;;;;44.50;39.70;;;;;;;;;;4984735;28;25103;-69
2023/11/23 06:39:28;;;;;;;42.60;38.45;;;;;;;;;;4985653;28;25080;-70
2023/11/23 06:41:54;;;;;;;39.70;36.17;;;;;;;;;;4988579;28;25066;-70
2023/11/23 06:44:21;;;;;;;40.20;36.65;;;;;;;;;;4988970;28;25187;-71
2023/11/23 06:46:47;;;;;;;41.13;36.95;;;;;;;;;;4987238;28;25071;-71
2023/11/23 06:49:13;;;;;;;49.92;36.00;;;;;;;;;;4986904;28;25098;-71
2023/11/23 06:51:42;;;;;;;41.10;35.20;;;;;;;;;;4984789;28;25141;-70
2023/11/23 06:54:11;;;;;;;38.35;34.78;;;;;;;;;;4984669;28;25061;-72
2023/11/23 06:56:37;;;;;;;43.58;39.17;;;;;;;;;;4987281;28;25067;-70
2023/11/23 06:59:03;;;;;;;41.67;37.85;;;;;;;;;;4984836;28;25068;-69
2023/11/23 07:01:29;;;;;;;42.13;38.05;;;;;;;;;;4983723;28;25103;-71
2023/11/23 07:03:55;;;;;;;41.90;37.35;;;;;;;;;;4985064;28;25059;-70
2023/11/23 07:06:24;;;;;;;40.28;36.90;;;;;;;;;;4984331;28;25076;-69
2023/11/23 07:08:50;;;;;;;44.65;40.33;;;;;;;;;;4985595;28;25055;-70
2023/11/23 07:11:19;;;;;;;45.00;40.60;;;;;;;;;;4983802;28;25053;-72
2023/11/23 07:13:46;;;;;;;44.88;40.50;;;;;;;;;;4984001;28;25153;-71
2023/11/23 07:16:15;;;;;;;48.47;41.38;;;;;;;;;;4985026;28;25150;-70
2023/11/23 07:18:41;;;;;;;43.22;39.10;;;;;;;;;;4980343;28;25071;-70
2023/11/23 07:21:07;;;;;;;44.72;39.33;;;;;;;;;;4984810;28;25071;-70
2023/11/23 07:23:36;;;;;;;47.05;36.90;;;;;;;;;;4992377;28;25133;-70
2023/11/23 07:26:02;;;;;;;49.17;37.67;;;;;;;;;;4981620;28;25055;-71
2023/11/23 07:28:28;;;;;;;41.47;37.13;;;;;;;;;;4989328;28;25066;-72
2023/11/23 07:30:56;;;;;;;43.13;37.35;;;;;;;;;;4989781;28;25056;-70
2023/11/23 07:33:24;;;;;;;46.42;39.22;;;;;;;;;;4987994;28;25048;-70
2023/11/23 07:35:51;;;;;;;45.00;36.08;;;;;;;;;;4990689;28;25101;-70
2023/11/23 07:38:17;;;;;;;51.50;37.85;;;;;;;;;;4988988;28;25149;-70
2023/11/23 07:40:43;;;;;;;46.47;36.47;;;;;;;;;;4989835;28;25072;-70
2023/11/23 07:43:09;;;;;;;42.38;38.15;;;;;;;;;;4990545;28;25141;-70
2023/11/23 07:45:37;;;;;;;52.55;40.00;;;;;;;;;;4989425;28;25118;-70
2023/11/23 07:48:08;;;;;;;49.20;40.97;;;;;;;;;;4988484;28;25069;-70
2023/11/23 07:50:35;;;;;;;50.07;37.47;;;;;;;;;;4984876;28;25113;-70
2023/11/23 07:53:01;;;;;;;49.05;38.95;;;;;;;;;;4980514;28;25073;-71
2023/11/23 07:55:27;;;;;;;50.10;38.80;;;;;;;;;;4983849;28;25078;-70
2023/11/23 07:57:53;;;;;;;44.85;38.63;;;;;;;;;;4987621;28;25066;-70
2023/11/23 08:00:19;;;;;;;41.58;37.05;;;;;;;;;;4988901;28;25105;-71
2023/11/23 08:02:45;;;;;;;50.97;38.72;;;;;;;;;;4981732;28;25061;-70
2023/11/23 08:05:11;;;;;;;46.80;39.80;;;;;;;;;;4981540;28;25080;-70
2023/11/23 08:07:37;;;;;;;45.13;37.67;;;;;;;;;;4979341;28;25069;-69
2023/11/23 08:10:06;;;;;;;51.63;39.80;;;;;;;;;;4982963;28;25070;-70
2023/11/23 08:12:33;;;;;;;44.05;39.42;;;;;;;;;;4987410;28;25069;-70
2023/11/23 08:14:59;;;;;;;47.42;38.65;;;;;;;;;;4978972;28;25071;-70
2023/11/23 08:17:26;;;;;;;43.95;38.90;;;;;;;;;;4977901;28;25071;-71
2023/11/23 08:19:52;;;;;;;51.83;38.80;;;;;;;;;;4981449;28;25100;-69
2023/11/23 08:22:20;;;;;;;45.58;37.80;;;;;;;;;;4991232;28;25115;-70
2023/11/23 08:24:46;;;;;;;47.53;38.63;;;;;;;;;;4982192;28;25058;-71
2023/11/23 08:27:12;;;;;;;45.70;37.67;;;;;;;;;;4981965;28;25067;-71
2023/11/23 08:29:38;;;;;;;38.28;33.50;;;;;;;;;;4975094;28;25093;-71
2023/11/23 08:32:05;;;;;;;42.05;37.22;;;;;;;;;;4986339;28;25075;-69
2023/11/23 08:34:31;;;;;;;39.83;35.53;;;;;;;;;;4984040;28;25071;-70
2023/11/23 08:36:57;;;;;;;38.97;34.92;;;;;;;;;;4982676;28;25073;-70
2023/11/23 08:39:23;;;;;;;38.38;32.95;;;;;;;;;;4983687;28;25154;-69
2023/11/23 08:41:49;;;;;;;34.60;31.15;;;;;;;;;;4991529;28;25085;-70
2023/11/23 08:44:15;;;;;;;34.15;29.75;;;;;;;;;;4981806;28;25080;-70
2023/11/23 08:46:41;;;;;;;36.42;29.30;;;;;;;;;;4982885;28;25063;-70
2023/11/23 08:49:10;;;;;;;32.38;29.27;;;;;;;;;;4984270;28;25039;-69
2023/11/23 08:51:36;;;;;;;35.03;29.23;;;;;;;;;;4988141;28;25052;-69
2023/11/23 08:54:02;;;;;;;35.22;31.20;;;;;;;;;;4978388;28;25052;-69
2023/11/23 08:56:28;;;;;;;31.98;28.60;;;;;;;;;;4989976;28;25103;-69
2023/11/23 08:58:54;;;;;;;31.80;27.98;;;;;;;;;;4988795;28;25090;-70
2023/11/23 09:01:20;;;;;;;35.13;29.48;;;;;;;;;;4983221;28;25076;-69
2023/11/23 09:03:46;;;;;;;31.98;27.77;;;;;;;;;;4982118;28;25066;-69
2023/11/23 09:06:13;;;;;;;35.15;28.05;;;;;;;;;;4981271;28;25045;-72
2023/11/23 09:08:40;;;;;;;29.95;26.80;;;;;;;;;;4984573;28;25127;-71
2023/11/23 09:11:06;;;;;;;28.73;26.08;;;;;;;;;;4987381;28;25077;-70
2023/11/23 09:13:32;;;;;;;29.98;26.85;;;;;;;;;;4987660;28;25091;-71
2023/11/23 09:15:59;;;;;;;31.10;27.45;;;;;;;;;;4985169;28;25070;-71
2023/11/23 09:18:25;;;;;;;30.58;27.17;;;;;;;;;;4986781;28;25060;-70
2023/11/23 09:20:51;;;;;;;31.80;28.33;;;;;;;;;;4986368;28;25130;-70
2023/11/23 09:23:18;;;;;;;30.95;27.65;;;;;;;;;;4990019;28;25123;-70
2023/11/23 09:25:44;;;;;;;30.30;27.17;;;;;;;;;;4982719;28;25133;-69
2023/11/23 09:28:10;;;;;;;29.85;26.98;;;;;;;;;;4986284;28;25069;-69
2023/11/23 09:30:36;;;;;;;38.05;28.42;;;;;;;;;;4986348;28;25124;-71
2023/11/23 09:33:03;;;;;;;32.35;27.90;;;;;;;;;;4986066;28;25068;-72
2023/11/23 09:35:29;;;;;;;30.75;27.63;;;;;;;;;;4986756;28;25048;-70
2023/11/23 09:37:57;;;;;;;31.48;28.02;;;;;;;;;;4985802;28;25125;-70
2023/11/23 09:40:24;;;;;;;31.77;28.33;;;;;;;;;;4984209;28;25085;-71
2023/11/23 09:42:51;;;;;;;31.08;27.77;;;;;;;;;;4981754;28;25075;-70
2023/11/23 09:45:20;;;;;;;31.50;28.33;;;;;;;;;;4985261;28;25088;-70
2023/11/23 09:47:48;;;;;;;36.90;28.80;;;;;;;;;;4984926;28;25120;-72
2023/11/23 09:50:14;;;;;;;29.25;26.35;;;;;;;;;;4986202;28;25081;-70
2023/11/23 09:52:41;;;;;;;30.45;26.77;;;;;;;;;;4986207;28;25143;-72
2023/11/23 09:55:09;;;;;;;28.52;25.52;;;;;;;;;;4985735;28;25049;-70
2023/11/23 09:57:35;;;;;;;36.47;25.08;;;;;;;;;;4984294;28;25145;-70
2023/11/23 10:00:08;;;;;;;30.73;25.45;;;;;;;;;;4974906;28;25066;-71
2023/11/23 10:02:36;;;;;;;30.70;26.45;;;;;;;;;;4980463;28;25065;-71
2023/11/23 10:05:02;;;;;;;29.85;23.33;;;;;;;;;;4977099;28;25058;-70
2023/11/23 10:07:28;;;;;;;25.23;22.85;;;;;;;;;;4983570;28;25070;-70
2023/11/23 10:09:55;;;;;;;24.65;22.20;;;;;;;;;;4981261;28;25145;-71
2023/11/23 10:12:23;;;;;;;24.52;21.90;;;;;;;;;;4983520;28;25053;-70
2023/11/23 10:14:52;;;;;;;24.33;20.52;;;;;;;;;;4980831;28;25073;-71
2023/11/23 10:17:18;;;;;;;21.40;19.08;;;;;;;;;;4983745;28;25155;-70
2023/11/23 10:19:44;;;;;;;21.52;19.25;;;;;;;;;;4974423;28;25100;-71
2023/11/23 10:22:10;;;;;;;22.58;20.17;;;;;;;;;;4983659;28;25137;-71
2023/11/23 10:24:46;;;;;;;19.77;17.83;;;;;;;;;;4980008;28;25074;-70
2023/11/23 10:27:12;;;;;;;19.80;18.08;;;;;;;;;;4975961;28;25101;-70
2023/11/23 10:29:38;;;;;;;24.40;17.10;;;;;;;;;;4976714;28;25098;-69
2023/11/23 10:32:06;;;;;;;18.17;16.45;;;;;;;;;;4975662;28;25078;-69
2023/11/23 10:34:32;;;;;;;18.90;16.83;;;;;;;;;;4980137;28;25114;-71
2023/11/23 10:36:59;;;;;;;21.02;16.95;;;;;;;;;;4983120;28;25076;-72
2023/11/23 10:39:27;;;;;;;15.45;13.75;;;;;;;;;;4988409;28;25063;-70
2023/11/23 10:41:53;;;;;;;15.57;14.20;;;;;;;;;;4986791;28;25075;-71
2023/11/23 10:44:19;;;;;;;17.67;12.40;;;;;;;;;;4986061;28;25061;-71
2023/11/23 10:46:47;;;;;;;14.02;12.00;;;;;;;;;;4980852;28;25064;-70
2023/11/23 10:49:13;;;;;;;11.15;10.20;;;;;;;;;;4984669;28;25067;-72
2023/11/23 10:51:41;;;;;;;12.13;10.85;;;;;;;;;;4984818;28;25069;-70
2023/11/23 10:54:07;;;;;;;14.13;10.95;;;;;;;;;;4986531;28;25077;-72
2023/11/23 10:56:34;;;;;;;11.52;10.52;;;;;;;;;;4989224;28;25159;-72
2023/11/23 10:59:06;;;;;;;13.50;11.13;;;;;;;;;;4990709;28;25081;-71
2023/11/23 11:01:32;;;;;;;13.17;11.83;;;;;;;;;;4991211;28;25094;-72
2023/11/23 11:03:58;;;;;;;15.68;10.65;;;;;;;;;;4990457;28;25145;-71
2023/11/23 11:06:25;;;;;;;12.30;9.10;;;;;;;;;;4990347;28;25142;-72
2023/11/23 11:08:52;;;;;;;11.40;10.30;;;;;;;;;;4990154;28;25095;-70
2023/11/23 11:11:21;;;;;;;12.63;11.82;;;;;;;;;;4989962;28;25145;-70
2023/11/23 11:13:48;;;;;;;13.43;11.27;;;;;;;;;;4983502;28;25078;-72
2023/11/23 11:16:14;;;;;;;15.60;9.93;;;;;;;;;;4991318;28;25080;-72
2023/11/23 11:18:41;;;;;;;9.13;8.25;;;;;;;;;;4990748;28;25140;-71
2023/11/23 11:21:07;;;;;;;6.72;5.68;;;;;;;;;;4990372;28;25072;-72
2023/11/23 11:23:51;;;;;;;17.73;8.30;;;;;;;;;;5001632;28;25112;-71
2023/11/23 11:26:21;;;;;;;13.65;7.47;;;;;;;;;;4997339;28;25077;-71
2023/11/23 11:28:54;;;;;;;13.00;7.93;;;;;;;;;;4994947;28;25087;-72
2023/11/23 11:31:28;;;;;;;10.07;9.15;;;;;;;;;;4986551;28;25138;-72
2023/11/23 11:33:54;;;;;;;9.93;8.70;;;;;;;;;;4988263;28;25061;-70
2023/11/23 11:36:20;;;;;;;8.52;7.60;;;;;;;;;;4990707;28;25117;-70
2023/11/23 11:38:58;;;;;;;8.32;6.85;;;;;;;;;;4995454;28;25077;-71
2023/11/23 11:41:28;;;;;;;12.57;7.13;;;;;;;;;;4987595;28;25086;-73
2023/11/23 11:43:54;;;;;;;10.55;9.50;;;;;;;;;;4988254;28;25134;-71
2023/11/23 11:46:20;;;;;;;10.90;8.15;;;;;;;;;;4990626;28;25083;-72
2023/11/23 11:48:46;;;;;;;14.32;6.45;;;;;;;;;;4986805;28;25059;-73
2023/11/23 11:51:12;;;;;;;12.75;9.13;;;;;;;;;;4986485;28;25079;-71
2023/11/23 11:53:40;;;;;;;9.38;8.10;;;;;;;;;;4989791;28;25059;-71
2023/11/23 11:56:06;;;;;;;13.48;9.88;;;;;;;;;;4985856;28;25216;-73
2023/11/23 11:58:32;;;;;;;19.52;9.50;;;;;;;;;;4987872;28;25070;-70
2023/11/23 12:00:59;;;;;;;14.75;9.98;;;;;;;;;;4988294;28;25064;-71
2023/11/23 12:03:26;;;;;;;17.80;10.20;;;;;;;;;;4993329;28;25056;-73
2023/11/23 12:05:52;;;;;;;12.80;10.27;;;;;;;;;;4997370;28;25062;-72
2023/11/23 12:08:19;;;;;;;15.38;10.98;;;;;;;;;;4991648;28;25074;-73
2023/11/23 12:10:45;;;;;;;15.48;11.32;;;;;;;;;;4987503;28;25092;-73
2023/11/23 12:13:14;;;;;;;24.80;12.40;;;;;;;;;;4988305;28;25097;-70
2023/11/23 12:15:44;;;;;;;19.08;14.10;;;;;;;;;;4988852;28;25073;-69
2023/11/23 12:18:14;;;;;;;25.05;15.57;;;;;;;;;;4988302;28;25071;-70
2023/11/23 12:20:41;;;;;;;25.98;16.23;;;;;;;;;;4988473;28;25109;-72
2023/11/23 12:23:08;;;;;;;18.20;15.02;;;;;;;;;;4988650;28;25124;-71
2023/11/23 12:25:35;;;;;;;21.55;15.10;;;;;;;;;;4989103;28;25060;-73
2023/11/23 12:28:02;;;;;;;21.13;16.50;;;;;;;;;;4990953;28;25190;-71
2023/11/23 12:30:29;;;;;;;19.75;16.15;;;;;;;;;;4995306;28;25097;-72
2023/11/23 12:32:55;;;;;;;18.35;15.05;;;;;;;;;;4997339;28;25046;-71
2023/11/23 12:35:21;;;;;;;23.48;16.08;;;;;;;;;;4992591;28;25064;-71
2023/11/23 12:37:47;;;;;;;19.42;17.00;;;;;;;;;;4993198;28;25090;-71
2023/11/23 12:40:13;;;;;;;26.85;16.65;;;;;;;;;;4990999;28;25131;-72
2023/11/23 12:42:40;;;;;;;18.92;16.27;;;;;;;;;;4988616;28;25123;-72
2023/11/23 12:45:08;;;;;;;23.88;17.20;;;;;;;;;;4986367;28;25063;-70
2023/11/23 12:47:37;;;;;;;21.98;19.30;;;;;;;;;;4987802;28;25068;-72
2023/11/23 12:50:05;;;;;;;31.95;20.50;;;;;;;;;;4986654;28;25089;-72
2023/11/23 12:52:34;;;;;;;24.00;18.58;;;;;;;;;;4989517;28;25055;-72
2023/11/23 12:55:01;;;;;;;23.77;16.90;;;;;;;;;;4967472;28;25070;-71
2023/11/23 12:57:27;;;;;;;21.95;17.42;;;;;;;;;;4982498;28;25068;-71
2023/11/23 12:59:53;;;;;;;19.20;15.38;;;;;;;;;;4986545;28;25066;-72
2023/11/23 13:02:19;;;;;;;21.08;12.27;;;;;;;;;;4983745;28;25067;-71
2023/11/23 13:04:45;;;;;;;21.60;15.18;;;;;;;;;;4991500;28;25072;-72
2023/11/23 13:07:11;;;;;;;19.17;14.98;;;;;;;;;;4988238;28;25067;-71
2023/11/23 13:09:37;;;;;;;20.67;15.48;;;;;;;;;;4986832;28;25073;-71
2023/11/23 13:12:04;;;;;;;20.05;14.93;;;;;;;;;;4982188;28;25055;-71
2023/11/23 13:14:30;;;;;;;18.33;13.10;;;;;;;;;;4984311;28;25062;-72
2023/11/23 13:17:00;;;;;;;24.27;17.92;;;;;;;;;;4985468;28;25079;-72
2023/11/23 13:19:26;;;;;;;27.52;19.77;;;;;;;;;;4985886;28;25088;-70
2023/11/23 13:21:53;;;;;;;25.50;21.52;;;;;;;;;;4986986;28;25051;-71
2023/11/23 13:24:20;;;;;;;25.70;20.52;;;;;;;;;;4984633;28;25058;-69
2023/11/23 13:26:48;;;;;;;27.35;21.40;;;;;;;;;;4988601;28;25155;-71
2023/11/23 13:29:14;;;;;;;22.60;20.17;;;;;;;;;;4990451;28;25126;-71
2023/11/23 13:31:40;;;;;;;28.02;22.40;;;;;;;;;;4990584;28;25058;-72
2023/11/23 13:34:10;;;;;;;27.83;23.02;;;;;;;;;;4988790;28;25075;-70
2023/11/23 13:36:36;;;;;;;27.52;21.90;;;;;;;;;;4987693;28;25123;-70
2023/11/23 13:39:05;;;;;;;30.00;21.67;;;;;;;;;;4986957;28;25066;-72
2023/11/23 13:41:32;;;;;;;23.92;21.45;;;;;;;;;;4990510;28;25062;-71
2023/11/23 13:43:58;;;;;;;28.27;23.95;;;;;;;;;;4986448;28;25064;-71
2023/11/23 13:46:25;;;;;;;26.00;23.30;;;;;;;;;;4987801;28;25055;-71
2023/11/23 13:48:52;;;;;;;26.85;21.65;;;;;;;;;;4986155;28;25092;-72
2023/11/23 13:51:20;;;;;;;25.65;19.92;;;;;;;;;;4987143;28;25089;-72
2023/11/23 13:53:46;;;;;;;26.75;23.00;;;;;;;;;;4985532;28;25077;-72
2023/11/23 13:56:13;;;;;;;25.25;20.50;;;;;;;;;;4978832;28;25137;-72
2023/11/23 13:58:38;;;;;;;29.20;21.17;;;;;;;;;;4985757;28;25074;-70
2023/11/23 14:01:04;;;;;;;21.65;17.88;;;;;;;;;;4987655;28;25092;-69
2023/11/23 14:03:31;;;;;;;27.23;18.85;;;;;;;;;;4985289;28;25137;-70
2023/11/23 14:05:58;;;;;;;22.10;19.63;;;;;;;;;;4986345;28;25049;-71
2023/11/23 14:08:24;;;;;;;26.50;19.60;;;;;;;;;;4984691;28;25083;-73
2023/11/23 14:10:50;;;;;;;22.48;19.17;;;;;;;;;;4987322;28;25065;-71
2023/11/23 14:13:16;;;;;;;26.27;20.23;;;;;;;;;;4985486;28;25139;-73
2023/11/23 14:15:43;;;;;;;29.33;20.98;;;;;;;;;;4985559;28;25055;-72